createdAt,value
2023-04-02T04:32:34.046Z,6.63
2023-04-02T04:37:41.038Z,7.33
2023-04-02T04:42:46.546Z,7.20
2023-04-02T04:47:57.973Z,7.63
2023-04-02T04:53:08.759Z,7.67
2023-04-02T04:58:42.590Z,8.40
2023-04-02T05:03:52.710Z,8.60
2023-04-02T05:08:56.783Z,5.90
2023-04-02T05:14:04.156Z,6.00
2023-04-02T05:19:22.839Z,4.27
2023-04-02T05:25:00.114Z,3.63
2023-04-02T05:30:23.285Z,3.70
2023-04-02T05:35:32.509Z,3.40
2023-04-02T05:40:41.852Z,3.20
2023-04-02T05:45:46.865Z,2.93
2023-04-02T05:50:55.716Z,3.13
2023-04-02T05:56:07.946Z,2.90
2023-04-02T06:01:21.518Z,2.33
2023-04-02T06:06:41.769Z,2.60
2023-04-02T06:11:47.928Z,2.13
2023-04-02T06:16:50.906Z,1.40
2023-04-02T06:21:58.493Z,2.23
2023-04-02T06:27:07.542Z,2.00
2023-04-02T06:32:12.004Z,2.53
2023-04-02T06:37:28.773Z,1.20
2023-04-02T06:42:39.890Z,1.60
2023-04-02T06:47:44.539Z,1.53
2023-04-02T06:52:53.879Z,2.37
2023-04-02T06:57:56.799Z,1.73
2023-04-02T07:03:01.358Z,1.40
2023-04-02T07:08:04.425Z,2.07
2023-04-02T07:13:08.325Z,2.13
2023-04-02T07:18:23.815Z,1.80
2023-04-02T07:23:27.300Z,2.10
2023-04-02T07:28:30.508Z,1.90
2023-04-02T07:33:33.472Z,2.47
2023-04-02T07:38:36.396Z,1.20
2023-04-02T07:43:40.280Z,1.50
2023-04-02T07:48:44.257Z,1.83
2023-04-02T07:53:50.339Z,3.03
2023-04-02T07:58:53.615Z,2.70
2023-04-02T08:03:57.800Z,1.90
2023-04-02T08:09:00.783Z,1.47
2023-04-02T08:14:03.703Z,1.10
2023-04-02T08:19:06.662Z,1.60
2023-04-02T08:24:09.764Z,1.43
2023-04-02T08:29:12.796Z,1.63
2023-04-02T08:34:15.914Z,1.83
2023-04-02T08:39:18.827Z,1.80
2023-04-02T08:44:42.243Z,1.77
2023-04-02T08:49:48.116Z,1.97
2023-04-02T08:54:51.150Z,2.33
2023-04-02T09:00:00.851Z,2.00
2023-04-02T09:05:06.177Z,3.10
2023-04-02T09:10:17.713Z,2.30
2023-04-02T09:15:31.062Z,2.70
2023-04-02T09:20:33.921Z,3.00
2023-04-02T09:25:43.384Z,2.77
2023-04-02T09:31:12.752Z,2.77
2023-04-02T09:36:26.061Z,2.93
2023-04-02T09:41:30.925Z,3.43
2023-04-02T09:46:33.751Z,5.03
2023-04-02T09:51:36.761Z,5.10
2023-04-02T09:56:41.131Z,4.67
2023-04-02T10:01:56.660Z,5.60
2023-04-02T10:06:59.586Z,5.47
2023-04-02T10:12:05.406Z,5.43
2023-04-02T10:17:17.941Z,4.17
2023-04-02T10:22:22.973Z,5.27
2023-04-02T10:27:39.114Z,4.03
2023-04-02T10:32:46.998Z,4.37
2023-04-02T10:38:13.686Z,3.97
2023-04-02T10:43:46.819Z,4.60
2023-04-02T10:49:14.127Z,4.63
2023-04-02T10:54:40.796Z,4.97
2023-04-02T10:59:47.721Z,4.27
2023-04-02T11:04:51.334Z,4.30
2023-04-02T11:09:56.391Z,5.17
2023-04-02T11:14:59.899Z,5.10
2023-04-02T11:20:40.725Z,5.33
2023-04-02T11:25:44.292Z,5.33
2023-04-02T11:30:50.930Z,6.10
2023-04-02T11:35:53.814Z,6.40
2023-04-02T11:41:00.873Z,5.90
2023-04-02T11:46:06.590Z,6.10
2023-04-02T11:51:22.540Z,6.07
2023-04-02T11:56:39.176Z,4.87
2023-04-02T12:02:01.753Z,5.57
2023-04-02T12:07:35.171Z,6.13
2023-04-02T12:12:39.684Z,5.67
2023-04-02T12:17:42.665Z,5.57
2023-04-02T12:22:51.565Z,5.07
2023-04-02T12:28:19.784Z,5.53
2023-04-02T12:33:37.279Z,5.73
2023-04-02T12:38:49.158Z,6.07
2023-04-02T12:44:17.810Z,5.47
2023-04-02T12:49:23.665Z,7.77
2023-04-02T12:54:27.056Z,6.60
2023-04-02T12:59:38.615Z,6.63
2023-04-02T13:04:52.115Z,7.43
2023-04-02T13:10:23.267Z,5.70
2023-04-02T13:15:31.992Z,6.07
2023-04-02T13:20:35.967Z,7.43
2023-04-02T13:25:38.895Z,6.23
2023-04-02T13:30:41.729Z,6.40
2023-04-02T13:35:45.420Z,7.13
2023-04-02T13:40:48.241Z,6.97
2023-04-02T13:45:53.308Z,6.77
2023-04-02T13:50:56.192Z,7.63
2023-04-02T13:55:58.925Z,7.93
2023-04-02T14:01:02.078Z,5.57
2023-04-02T14:06:12.076Z,7.63
2023-04-02T14:11:29.210Z,6.83
2023-04-02T14:16:37.979Z,5.97
2023-04-02T14:21:53.918Z,5.97
2023-04-02T14:27:16.258Z,6.40
2023-04-02T14:32:45.430Z,7.67
2023-04-02T14:38:10.392Z,6.53
2023-04-02T14:43:24.499Z,7.03
2023-04-02T14:48:56.595Z,7.20
2023-04-02T14:54:28.137Z,5.73
2023-04-02T14:59:42.635Z,5.27
2023-04-02T15:04:52.861Z,6.63
2023-04-02T15:10:15.002Z,5.90
2023-04-02T15:15:40.939Z,5.57
2023-04-02T15:21:16.630Z,4.33
2023-04-02T15:26:31.556Z,5.00
2023-04-02T15:31:34.935Z,3.63
2023-04-02T15:37:21.904Z,4.60
2023-04-02T15:42:38.139Z,4.13
2023-04-02T15:47:53.456Z,4.17
2023-04-02T15:53:08.251Z,3.57
2023-04-02T15:58:39.084Z,3.63
2023-04-02T16:03:46.187Z,3.83
2023-04-02T16:08:57.220Z,3.63
2023-04-02T16:14:27.461Z,3.47
2023-04-02T16:19:45.202Z,3.30
2023-04-02T16:24:55.940Z,3.00
2023-04-02T16:30:26.504Z,3.37
2023-04-02T16:35:47.844Z,2.80
2023-04-02T16:41:19.391Z,3.87
2023-04-02T16:46:56.354Z,3.80
2023-04-02T16:52:39.228Z,3.53
2023-04-02T16:58:14.688Z,4.27
2023-04-02T17:03:32.658Z,4.50
2023-04-02T17:08:43.799Z,3.83
2023-04-02T17:13:56.046Z,4.77
2023-04-02T17:18:59.178Z,4.53
2023-04-02T17:24:33.965Z,3.87
2023-04-02T17:29:39.563Z,3.90
2023-04-02T17:34:42.429Z,4.13
2023-04-02T17:40:09.119Z,4.10
2023-04-02T17:45:44.411Z,5.23
2023-04-02T17:51:02.216Z,4.33
2023-04-02T17:56:07.723Z,4.00
2023-04-02T18:01:30.493Z,4.77
2023-04-02T18:07:11.315Z,4.80
2023-04-02T18:12:51.966Z,3.93
2023-04-02T18:18:10.421Z,4.57
2023-04-02T18:23:45.590Z,5.57
2023-04-02T18:29:16.537Z,4.60
2023-04-02T18:34:34.395Z,4.93
2023-04-02T18:40:06.974Z,3.90
2023-04-02T18:45:35.961Z,3.50
2023-04-02T18:50:40.947Z,4.30
2023-04-02T18:55:51.945Z,4.53
2023-04-02T19:00:55.881Z,3.87
2023-04-02T19:06:10.188Z,4.27
2023-04-02T19:11:28.440Z,5.07
2023-04-02T19:16:54.135Z,5.83
2023-04-02T19:22:12.351Z,4.50
2023-04-02T19:27:33.853Z,4.57
2023-04-02T19:32:51.900Z,3.73
2023-04-02T19:38:06.686Z,3.90
2023-04-02T19:43:11.229Z,5.07
2023-04-02T19:48:24.534Z,4.57
2023-04-02T19:53:27.376Z,3.70
2023-04-02T19:58:32.643Z,4.50
2023-04-02T20:03:35.624Z,4.57
2023-04-02T20:08:38.640Z,3.33
2023-04-02T20:13:41.399Z,4.40
2023-04-02T20:18:44.160Z,4.57
2023-04-02T20:23:46.985Z,4.07
2023-04-02T20:28:49.859Z,4.60
2023-04-02T20:33:59.025Z,4.37
2023-04-02T20:39:01.982Z,4.93
2023-04-02T20:44:04.782Z,4.37
2023-04-02T20:49:07.640Z,4.77
2023-04-02T20:54:10.784Z,5.30
2023-04-02T20:59:13.575Z,4.30
2023-04-02T21:04:16.501Z,4.20
2023-04-02T21:09:21.295Z,4.33
2023-04-02T21:14:24.101Z,4.83
2023-04-02T21:19:27.708Z,3.03
2023-04-02T21:24:30.674Z,4.13
2023-04-02T21:29:33.456Z,4.63
2023-04-02T21:34:36.320Z,3.60
2023-04-02T21:39:39.079Z,4.10
2023-04-02T21:44:41.900Z,3.83
2023-04-02T21:49:44.626Z,3.70
2023-04-02T21:54:47.385Z,3.20
2023-04-02T21:59:50.190Z,3.20
2023-04-02T22:04:53.008Z,2.50
2023-04-02T22:09:56.089Z,3.13
2023-04-02T22:14:58.862Z,3.30
2023-04-02T22:20:01.666Z,3.30
2023-04-02T22:25:04.734Z,2.90
2023-04-02T22:30:08.315Z,3.50
2023-04-02T22:35:11.213Z,3.50
2023-04-02T22:40:13.929Z,3.03
2023-04-02T22:45:18.311Z,3.00
2023-04-02T22:50:21.267Z,3.40
2023-04-02T22:55:24.034Z,3.17
2023-04-02T23:00:26.766Z,3.80
2023-04-02T23:05:29.523Z,3.77
2023-04-02T23:10:32.629Z,3.90
2023-04-02T23:15:35.478Z,2.97
2023-04-02T23:20:38.561Z,2.63
2023-04-02T23:25:41.530Z,3.07
2023-04-02T23:30:46.744Z,2.40
